עמוד ראשי
METAR-TAF:

METAR-TAF

שדות תעופה :

Clovis, ניו מקסיקו, ארצות הברית

קו רוחב: 34-26N, קו אורך: 103-05W, גובה: 1284מטר

תצפית מזג אוויר נוכחית

הדו"ח נערך לפני 20דקות, בשעה 03:56 UTC
רוח 3קשר מכיוון מזרח/דרום-מזרח
טמפרטורת 23 צלסיוס
לחות 57%
לחץ 1026 hPa
ראות: 14.5קילומטר
שמיים נקיים

METAR: KCVN 250356Z AUTO 12003KT 9SM CLR 23/14 A3029 RMK AO2 SLP215 T02280139

זמן: 22:16 (04:16 UTC)


TAF: חסר

תצפיות ותחזיות מזג אוויר לגבי יותר מ- 4,000 שדות תעופה ברחבי העולם. דוחות METAR ו- TAF.

התחנות הזמינות מסומנות בנקודות צהובות ואדומות על גבי המפה.

העבר את העכבר לנקודה הצבעונית על מנת לראות את שם התחנה.

לאחר מכן, לחץ כדי לראות את תוכן ואת תחזיות מזג האוויר.

כדי לשנות את המפה: לחץ על הכפתורים הירוקים עם הפלוס השחור כדי להתקרב; על הכפתור הירוק עם המקף כדי להתרחק; או בחיצים הירוקים למפות סמוכות.


METAR-TAF: